createdAt,value
2023-05-01T00:00:38.427Z,99.99
2023-05-01T00:01:38.762Z,99.99
2023-05-01T00:02:38.532Z,99.99
2023-05-01T00:03:38.608Z,99.99
2023-05-01T00:04:38.449Z,99.99
2023-05-01T00:05:38.426Z,99.99
2023-05-01T00:06:38.443Z,99.99
2023-05-01T00:07:38.424Z,99.99
2023-05-01T00:08:38.416Z,99.99
2023-05-01T00:09:38.416Z,99.99
2023-05-01T00:10:38.406Z,99.99
2023-05-01T00:11:38.417Z,99.99
2023-05-01T00:12:38.401Z,99.99
2023-05-01T00:13:38.422Z,99.99
2023-05-01T00:14:38.401Z,99.99
2023-05-01T00:15:38.402Z,99.99
2023-05-01T00:16:38.454Z,99.99
2023-05-01T00:17:38.531Z,99.99
2023-05-01T00:18:38.397Z,99.99
2023-05-01T00:19:38.393Z,99.99
2023-05-01T00:20:38.403Z,99.99
2023-05-01T00:21:38.417Z,99.99
2023-05-01T00:22:38.386Z,99.99
2023-05-01T00:23:38.391Z,99.99
2023-05-01T00:24:38.381Z,99.99
2023-05-01T00:25:38.385Z,99.99
2023-05-01T00:26:38.388Z,99.99
2023-05-01T00:27:38.391Z,99.99
2023-05-01T00:28:38.387Z,99.99
2023-05-01T00:29:38.374Z,99.99
2023-05-01T00:30:38.379Z,99.99
2023-05-01T00:31:38.431Z,99.99
2023-05-01T00:32:38.382Z,99.99
2023-05-01T00:33:38.394Z,99.99
2023-05-01T00:34:38.366Z,99.99
2023-05-01T00:35:38.370Z,99.99
2023-05-01T00:36:38.375Z,99.99
2023-05-01T00:37:38.367Z,99.99
2023-05-01T00:38:38.357Z,99.99
2023-05-01T00:39:38.372Z,99.99
2023-05-01T00:40:38.658Z,99.99
2023-05-01T00:41:38.366Z,99.99
2023-05-01T00:42:38.352Z,99.99
2023-05-01T00:43:38.362Z,99.99
2023-05-01T00:44:38.360Z,99.99
2023-05-01T00:45:38.449Z,99.99
2023-05-01T00:46:38.348Z,99.99
2023-05-01T00:47:38.395Z,99.99
2023-05-01T00:48:38.341Z,99.99
2023-05-01T00:49:38.361Z,99.99
2023-05-01T00:50:38.337Z,99.99
2023-05-01T00:51:38.339Z,99.99
2023-05-01T00:52:38.331Z,99.99
2023-05-01T00:53:38.336Z,99.99
2023-05-01T00:54:38.332Z,99.99
2023-05-01T00:55:38.333Z,99.99
2023-05-01T00:56:38.322Z,99.99
2023-05-01T00:57:38.331Z,99.99
2023-05-01T00:58:38.323Z,99.99
2023-05-01T00:59:38.322Z,99.99
2023-05-01T01:00:38.318Z,99.99
2023-05-01T01:01:38.408Z,99.99
2023-05-01T01:02:38.332Z,99.99
2023-05-01T01:03:38.322Z,99.99
2023-05-01T01:04:38.351Z,99.99
2023-05-01T01:05:38.328Z,99.99
2023-05-01T01:06:38.396Z,99.99
2023-05-01T01:07:38.312Z,99.99
2023-05-01T01:08:38.305Z,99.99
2023-05-01T01:09:38.299Z,99.99
2023-05-01T01:10:38.290Z,99.99
2023-05-01T01:11:38.297Z,99.99
2023-05-01T01:12:38.291Z,99.99
2023-05-01T01:13:38.312Z,99.99
2023-05-01T01:14:38.284Z,99.99
2023-05-01T01:15:38.284Z,99.99
2023-05-01T01:16:38.337Z,99.99
2023-05-01T01:17:38.291Z,99.99
2023-05-01T01:18:38.284Z,99.99
2023-05-01T01:19:38.279Z,99.99
2023-05-01T01:20:38.271Z,99.99
2023-05-01T01:21:38.294Z,99.99
2023-05-01T01:22:38.284Z,99.99
2023-05-01T01:23:38.282Z,99.99
2023-05-01T01:24:38.266Z,99.99
2023-05-01T01:25:38.262Z,99.99
2023-05-01T01:26:38.258Z,99.99
2023-05-01T01:27:38.261Z,99.99
2023-05-01T01:28:38.259Z,99.99
2023-05-01T01:29:38.252Z,99.99
2023-05-01T01:30:38.248Z,99.99
2023-05-01T01:31:38.335Z,99.99
2023-05-01T01:32:38.270Z,99.99
2023-05-01T01:33:38.244Z,99.99
2023-05-01T01:34:38.238Z,99.99
2023-05-01T01:35:38.247Z,99.99
2023-05-01T01:36:38.243Z,99.99
2023-05-01T01:37:38.256Z,99.99
2023-05-01T01:38:38.237Z,99.99
2023-05-01T01:39:38.239Z,99.99
2023-05-01T01:40:38.232Z,99.99
2023-05-01T01:41:38.227Z,99.99
2023-05-01T01:42:38.223Z,99.99
2023-05-01T01:43:38.224Z,99.99
2023-05-01T01:44:38.222Z,99.99
2023-05-01T01:45:38.217Z,99.99
2023-05-01T01:46:38.303Z,99.99
2023-05-01T01:47:38.258Z,99.99
2023-05-01T01:48:38.215Z,99.99
2023-05-01T01:49:38.249Z,99.99
2023-05-01T01:50:38.205Z,99.99
2023-05-01T01:51:38.211Z,99.99
2023-05-01T01:52:38.208Z,99.99
2023-05-01T01:53:38.226Z,99.99
2023-05-01T01:54:38.217Z,99.99
2023-05-01T01:55:38.203Z,99.99
2023-05-01T01:56:38.197Z,99.99
2023-05-01T01:57:38.196Z,99.99
2023-05-01T01:58:38.196Z,99.99
2023-05-01T01:59:38.190Z,99.99
2023-05-01T02:00:38.196Z,99.99
2023-05-01T02:01:38.202Z,99.99
2023-05-01T02:02:38.319Z,99.99
2023-05-01T02:03:38.298Z,99.99
2023-05-01T02:04:38.173Z,99.99
2023-05-01T02:05:38.173Z,99.99
2023-05-01T02:06:38.278Z,99.99
2023-05-01T02:07:38.175Z,99.99
2023-05-01T02:08:38.165Z,99.99
2023-05-01T02:09:38.195Z,99.99
2023-05-01T02:10:38.160Z,99.99
2023-05-01T02:11:38.184Z,99.99
2023-05-01T02:12:38.161Z,99.99
2023-05-01T02:13:38.159Z,99.99
2023-05-01T02:14:38.158Z,99.99
2023-05-01T02:15:38.152Z,99.99
2023-05-01T02:16:38.225Z,99.99
2023-05-01T02:17:38.212Z,99.99
2023-05-01T02:18:38.148Z,99.99
2023-05-01T02:19:38.158Z,99.99
2023-05-01T02:20:38.156Z,99.99
2023-05-01T02:21:38.140Z,99.99
2023-05-01T02:22:38.134Z,99.99
2023-05-01T02:23:38.140Z,99.99
2023-05-01T02:24:38.135Z,99.99
2023-05-01T02:25:38.514Z,99.99
2023-05-01T02:26:38.133Z,99.99
2023-05-01T02:27:38.138Z,99.99
2023-05-01T02:28:38.124Z,99.99
2023-05-01T02:29:38.152Z,99.99
2023-05-01T02:30:38.118Z,99.99
2023-05-01T02:31:38.157Z,99.99
2023-05-01T02:32:38.169Z,99.99
2023-05-01T02:33:38.127Z,99.99
2023-05-01T02:34:38.125Z,99.99
2023-05-01T02:35:38.114Z,99.99
2023-05-01T02:36:38.100Z,99.99
2023-05-01T02:37:38.103Z,99.99
2023-05-01T02:38:38.100Z,99.99
2023-05-01T02:39:38.102Z,99.99
2023-05-01T02:40:38.095Z,99.99
2023-05-01T02:41:38.113Z,99.99
2023-05-01T02:42:38.091Z,99.99
2023-05-01T02:43:38.091Z,99.99
2023-05-01T02:44:38.083Z,99.99
2023-05-01T02:45:38.157Z,99.99
2023-05-01T02:46:38.173Z,99.99
2023-05-01T02:47:38.115Z,99.99
2023-05-01T02:48:38.073Z,99.99
2023-05-01T02:49:38.073Z,99.99
2023-05-01T02:50:38.071Z,99.99
2023-05-01T02:51:38.066Z,99.99
2023-05-01T02:52:38.092Z,99.99
2023-05-01T02:53:38.068Z,99.99
2023-05-01T02:54:38.062Z,99.99
2023-05-01T02:55:38.077Z,99.99
2023-05-01T02:56:38.059Z,99.99
2023-05-01T02:57:38.083Z,99.99
2023-05-01T02:58:38.047Z,99.99
2023-05-01T02:59:38.050Z,99.99
2023-05-01T03:00:38.044Z,99.99
2023-05-01T03:01:38.142Z,99.99
2023-05-01T03:02:38.092Z,99.99
2023-05-01T03:03:38.037Z,99.99
2023-05-01T03:04:38.214Z,99.99
2023-05-01T03:05:38.042Z,99.99
2023-05-01T03:06:38.119Z,99.99
2023-05-01T03:07:38.030Z,99.99
2023-05-01T03:08:38.037Z,99.99
2023-05-01T03:09:38.027Z,99.99
2023-05-01T03:10:38.024Z,99.99
2023-05-01T03:11:38.027Z,99.99
2023-05-01T03:12:38.018Z,99.99
2023-05-01T03:13:38.033Z,99.99
2023-05-01T03:14:38.022Z,99.99
2023-05-01T03:15:38.020Z,99.99
2023-05-01T03:16:38.081Z,99.99
2023-05-01T03:17:38.042Z,99.99
2023-05-01T03:18:38.007Z,99.99
2023-05-01T03:19:38.006Z,99.99
2023-05-01T03:20:37.991Z,99.99
2023-05-01T03:21:37.992Z,99.99
2023-05-01T03:22:38.038Z,99.99
2023-05-01T03:23:37.986Z,99.99
2023-05-01T03:24:37.982Z,99.99
2023-05-01T03:25:37.979Z,99.99
2023-05-01T03:26:37.975Z,99.99
2023-05-01T03:27:37.971Z,99.99
2023-05-01T03:28:37.974Z,99.99
2023-05-01T03:29:38.004Z,99.99
2023-05-01T03:30:37.963Z,99.99
2023-05-01T03:31:37.996Z,99.99
2023-05-01T03:32:37.970Z,99.99
2023-05-01T03:33:37.952Z,99.99
2023-05-01T03:34:37.958Z,99.99
2023-05-01T03:35:38.077Z,99.99
2023-05-01T03:36:37.951Z,99.99
2023-05-01T03:37:37.943Z,99.99
2023-05-01T03:38:37.943Z,99.99
2023-05-01T03:39:37.934Z,99.99
2023-05-01T03:40:37.936Z,99.99
2023-05-01T03:41:37.928Z,99.99
2023-05-01T03:42:37.928Z,99.99
2023-05-01T03:43:37.927Z,99.99
2023-05-01T03:44:37.925Z,99.99
2023-05-01T03:45:37.939Z,99.99
2023-05-01T03:46:37.998Z,99.99
2023-05-01T03:47:37.940Z,99.99
2023-05-01T03:48:37.918Z,99.99
2023-05-01T03:49:37.899Z,99.99
2023-05-01T03:50:37.907Z,99.99
2023-05-01T03:51:37.916Z,99.99
2023-05-01T03:52:37.925Z,99.99
2023-05-01T03:53:37.901Z,99.99
2023-05-01T03:54:37.899Z,99.99
2023-05-01T03:55:37.898Z,99.99
2023-05-01T03:56:37.895Z,99.99
2023-05-01T03:57:37.887Z,99.99
2023-05-01T03:58:37.892Z,99.99
2023-05-01T03:59:37.881Z,99.99
2023-05-01T04:00:37.884Z,99.99
2023-05-01T04:01:37.910Z,99.99
2023-05-01T04:02:37.932Z,99.99
2023-05-01T04:03:37.964Z,99.99
2023-05-01T04:04:37.913Z,99.99
2023-05-01T04:05:37.872Z,99.99
2023-05-01T04:06:37.936Z,99.99
2023-05-01T04:07:37.856Z,99.99
2023-05-01T04:08:37.860Z,99.99
2023-05-01T04:09:37.855Z,99.99
2023-05-01T04:10:37.861Z,99.99
2023-05-01T04:11:37.854Z,99.99
2023-05-01T04:12:37.851Z,99.99
2023-05-01T04:13:37.845Z,99.99
2023-05-01T04:14:37.847Z,99.99
2023-05-01T04:15:37.894Z,99.99
2023-05-01T04:16:37.946Z,99.99
2023-05-01T04:17:37.880Z,99.99
2023-05-01T04:18:37.838Z,99.99
2023-05-01T04:19:37.829Z,99.99
2023-05-01T04:20:37.828Z,99.99
2023-05-01T04:21:37.822Z,99.99
2023-05-01T04:22:37.826Z,99.99
2023-05-01T04:23:37.815Z,99.99
2023-05-01T04:24:37.826Z,99.99
2023-05-01T04:25:37.815Z,99.99
2023-05-01T04:26:37.834Z,99.99
2023-05-01T04:27:37.806Z,99.99
2023-05-01T04:28:37.812Z,99.99
2023-05-01T04:29:37.798Z,99.99
2023-05-01T04:30:37.802Z,99.99
2023-05-01T04:31:37.827Z,99.99
2023-05-01T04:32:37.841Z,99.99
2023-05-01T04:33:37.806Z,99.99
2023-05-01T04:34:37.792Z,99.99
2023-05-01T04:35:37.788Z,99.99
2023-05-01T04:36:37.786Z,99.99
2023-05-01T04:37:37.783Z,99.99
2023-05-01T04:38:37.804Z,99.99
2023-05-01T04:39:37.790Z,99.99
2023-05-01T04:40:37.784Z,99.99
2023-05-01T04:41:37.769Z,99.99
2023-05-01T04:42:37.766Z,99.99
2023-05-01T04:43:37.775Z,99.99
2023-05-01T04:44:37.772Z,99.99
2023-05-01T04:45:37.756Z,99.99
2023-05-01T04:46:37.789Z,99.99
2023-05-01T04:47:37.808Z,99.99
2023-05-01T04:48:37.753Z,99.99
2023-05-01T04:49:37.774Z,99.99
2023-05-01T04:50:37.784Z,99.99
2023-05-01T04:51:37.743Z,99.99
2023-05-01T04:52:37.744Z,99.99
2023-05-01T04:53:37.738Z,99.99
2023-05-01T04:54:37.734Z,99.99
2023-05-01T04:55:37.744Z,99.99
2023-05-01T04:56:37.740Z,99.99
2023-05-01T04:57:37.728Z,99.99
2023-05-01T04:58:37.730Z,99.99
2023-05-01T04:59:37.721Z,99.99
2023-05-01T05:00:37.718Z,99.99
2023-05-01T05:01:37.811Z,99.99
2023-05-01T05:02:37.815Z,99.99
2023-05-01T05:03:37.852Z,99.99
2023-05-01T05:04:37.712Z,99.99
2023-05-01T05:05:37.727Z,99.99
2023-05-01T05:06:37.816Z,99.99
2023-05-01T05:07:37.698Z,99.99
2023-05-01T05:08:37.732Z,99.99
2023-05-01T05:09:37.702Z,99.99
2023-05-01T05:10:37.698Z,99.99
2023-05-01T05:11:37.696Z,99.99
2023-05-01T05:12:37.699Z,99.99
2023-05-01T05:13:37.700Z,99.99
2023-05-01T05:14:37.683Z,99.99
2023-05-01T05:15:37.686Z,99.99
2023-05-01T05:16:37.809Z,99.99
2023-05-01T05:17:37.740Z,99.99
2023-05-01T05:18:37.673Z,99.99
2023-05-01T05:19:37.670Z,99.99
2023-05-01T05:20:37.669Z,99.99
2023-05-01T05:21:37.686Z,99.99
2023-05-01T05:22:37.694Z,99.99
2023-05-01T05:23:37.664Z,99.99
2023-05-01T05:24:37.679Z,99.99
2023-05-01T05:25:37.658Z,99.99
2023-05-01T05:26:37.667Z,99.99
2023-05-01T05:27:37.663Z,99.99
2023-05-01T05:28:37.649Z,99.99
2023-05-01T05:29:37.647Z,99.99
2023-05-01T05:30:37.645Z,99.99
2023-05-01T05:31:37.731Z,99.99
2023-05-01T05:32:37.661Z,99.99
2023-05-01T05:33:37.642Z,99.99
2023-05-01T05:34:37.638Z,99.99
2023-05-01T05:35:37.634Z,99.99
2023-05-01T05:36:37.650Z,99.99
2023-05-01T05:37:37.663Z,99.99
2023-05-01T05:38:37.628Z,99.99
2023-05-01T05:39:37.657Z,99.99
2023-05-01T05:40:37.630Z,99.99
2023-05-01T05:41:37.619Z,99.99
2023-05-01T05:42:37.621Z,99.99
2023-05-01T05:43:37.619Z,99.99
2023-05-01T05:44:37.616Z,99.99
2023-05-01T05:45:37.706Z,99.99
2023-05-01T05:46:37.732Z,99.99
2023-05-01T05:47:37.690Z,99.99
2023-05-01T05:48:37.611Z,99.99
2023-05-01T05:49:37.613Z,99.99
2023-05-01T05:50:37.625Z,99.99
2023-05-01T05:51:37.604Z,99.99
2023-05-01T05:52:37.607Z,99.98
2023-05-01T05:53:37.645Z,99.99
2023-05-01T05:54:37.609Z,99.78
2023-05-01T05:55:37.596Z,99.22
2023-05-01T05:56:37.607Z,98.71
2023-05-01T05:57:37.611Z,99.02
2023-05-01T05:58:37.586Z,98.40
2023-05-01T05:59:37.584Z,98.05
2023-05-01T06:00:37.609Z,97.33
2023-05-01T06:01:37.576Z,97.64
2023-05-01T06:02:37.718Z,96.88
2023-05-01T06:03:37.705Z,96.92
2023-05-01T06:04:37.577Z,96.98
2023-05-01T06:05:37.605Z,97.34
2023-05-01T06:06:37.609Z,96.73
2023-05-01T06:07:37.577Z,96.12
2023-05-01T06:08:37.670Z,96.48
2023-05-01T06:09:37.585Z,96.08
2023-05-01T06:10:37.565Z,95.06
2023-05-01T06:11:37.567Z,95.87
2023-05-01T06:12:37.691Z,95.42
2023-05-01T06:13:37.561Z,95.07
2023-05-01T06:14:37.559Z,94.76
2023-05-01T06:15:37.702Z,93.09
2023-05-01T06:16:37.730Z,94.15
2023-05-01T06:17:37.670Z,93.80
2023-05-01T06:18:37.555Z,92.99
2023-05-01T06:19:37.555Z,93.29
2023-05-01T06:20:37.557Z,93.76
2023-05-01T06:21:37.577Z,93.71
2023-05-01T06:22:37.560Z,92.19
2023-05-01T06:23:37.546Z,92.35
2023-05-01T06:24:37.547Z,93.26
2023-05-01T06:25:37.576Z,91.33
2023-05-01T06:26:37.558Z,90.37
2023-05-01T06:27:37.536Z,90.37
2023-05-01T06:28:37.539Z,91.05
2023-05-01T06:29:37.538Z,90.44
2023-05-01T06:30:37.546Z,89.15
2023-05-01T06:31:37.555Z,88.34
2023-05-01T06:32:37.577Z,88.60
2023-05-01T06:33:37.529Z,88.71
2023-05-01T06:34:37.530Z,87.65
2023-05-01T06:35:37.528Z,88.87
2023-05-01T06:36:37.531Z,90.14
2023-05-01T06:37:37.526Z,88.93
2023-05-01T06:38:37.522Z,89.13
2023-05-01T06:39:37.523Z,88.68
2023-05-01T06:40:37.523Z,85.94
2023-05-01T06:41:37.644Z,86.76
2023-05-01T06:42:37.516Z,86.71
2023-05-01T06:43:37.521Z,87.18
2023-05-01T06:44:37.526Z,87.28
2023-05-01T06:45:37.522Z,86.22
2023-05-01T06:46:37.591Z,84.81
2023-05-01T06:47:37.564Z,83.39
2023-05-01T06:48:37.539Z,83.09
2023-05-01T06:49:37.514Z,83.55
2023-05-01T06:50:37.516Z,83.18
2023-05-01T06:51:37.509Z,82.64
2023-05-01T06:52:37.516Z,82.84
2023-05-01T06:53:37.508Z,82.34
2023-05-01T06:54:37.516Z,81.52
2023-05-01T06:55:37.503Z,82.90
2023-05-01T06:56:37.530Z,82.10
2023-05-01T06:57:37.531Z,80.04
2023-05-01T06:58:37.511Z,80.54
2023-05-01T06:59:37.504Z,81.96
2023-05-01T07:00:37.535Z,81.92
2023-05-01T07:01:37.516Z,81.37
2023-05-01T07:02:37.578Z,80.06
2023-05-01T07:03:37.574Z,81.07
2023-05-01T07:04:37.515Z,78.44
2023-05-01T07:05:37.502Z,78.61
2023-05-01T07:06:37.652Z,79.92
2023-05-01T07:07:40.309Z,80.12
2023-05-01T07:08:37.508Z,79.58
2023-05-01T07:09:37.506Z,79.28
2023-05-01T07:10:38.251Z,78.57
2023-05-01T07:11:37.510Z,78.57
2023-05-01T07:12:37.510Z,78.43
2023-05-01T07:13:37.535Z,78.70
2023-05-01T07:14:37.513Z,77.89
2023-05-01T07:15:37.502Z,76.75
2023-05-01T07:16:37.549Z,75.34
2023-05-01T07:17:37.519Z,75.54
2023-05-01T07:18:37.506Z,74.96
2023-05-01T07:19:37.514Z,74.02
2023-05-01T07:20:37.513Z,73.00
2023-05-01T07:21:37.514Z,72.53
2023-05-01T07:22:37.524Z,71.50
2023-05-01T07:23:37.512Z,69.79
2023-05-01T07:24:37.515Z,69.99
2023-05-01T07:25:37.518Z,70.56
2023-05-01T07:26:37.514Z,69.09
2023-05-01T07:27:37.520Z,69.96
2023-05-01T07:28:37.509Z,69.29
2023-05-01T07:29:37.529Z,67.09
2023-05-01T07:30:37.527Z,65.73
2023-05-01T07:31:37.569Z,65.10
2023-05-01T07:32:37.525Z,64.94
2023-05-01T07:33:37.511Z,63.48
2023-05-01T07:34:37.514Z,62.52
2023-05-01T07:35:37.518Z,64.15
2023-05-01T07:36:37.521Z,64.18
2023-05-01T07:37:37.511Z,63.93
2023-05-01T07:38:37.525Z,65.13
2023-05-01T07:39:37.520Z,64.90
2023-05-01T07:40:37.520Z,65.97
2023-05-01T07:41:37.515Z,65.36
2023-05-01T07:42:37.535Z,65.13
2023-05-01T07:43:37.527Z,65.23
2023-05-01T07:44:37.528Z,63.98
2023-05-01T07:45:37.564Z,62.89
2023-05-01T07:46:37.699Z,61.74
2023-05-01T07:47:37.564Z,61.38
2023-05-01T07:48:38.936Z,60.85
2023-05-01T07:49:37.544Z,59.51
2023-05-01T07:50:37.536Z,59.25
2023-05-01T07:51:37.550Z,58.48
2023-05-01T07:52:37.543Z,59.14
2023-05-01T07:53:37.544Z,58.90
2023-05-01T07:54:37.553Z,61.07
2023-05-01T07:55:37.551Z,61.69
2023-05-01T07:56:37.547Z,62.52
2023-05-01T07:57:37.569Z,63.68
2023-05-01T07:58:37.587Z,63.91
2023-05-01T07:59:37.560Z,64.54
2023-05-01T08:00:37.566Z,61.93
2023-05-01T08:01:37.603Z,63.29
2023-05-01T08:02:37.669Z,61.17
2023-05-01T08:03:37.777Z,60.90
2023-05-01T08:04:37.660Z,61.69
2023-05-01T08:05:37.586Z,61.69
2023-05-01T08:06:37.681Z,63.24
2023-05-01T08:07:37.591Z,63.64
2023-05-01T08:08:37.604Z,63.54
2023-05-01T08:09:37.593Z,62.05
2023-05-01T08:10:37.592Z,61.88
2023-05-01T08:11:37.608Z,61.43
2023-05-01T08:12:37.608Z,63.15
2023-05-01T08:13:37.625Z,62.88
2023-05-01T08:14:37.622Z,63.44
2023-05-01T08:15:37.660Z,63.61
2023-05-01T08:16:37.677Z,62.13
2023-05-01T08:17:37.681Z,61.17
2023-05-01T08:18:37.631Z,60.47
2023-05-01T08:19:37.639Z,61.67
2023-05-01T08:20:37.642Z,59.95
2023-05-01T08:21:37.647Z,59.09
2023-05-01T08:22:37.647Z,59.09
2023-05-01T08:23:37.662Z,59.03
2023-05-01T08:24:37.661Z,61.08
2023-05-01T08:25:37.664Z,60.28
2023-05-01T08:26:37.673Z,59.19
2023-05-01T08:27:37.681Z,61.11
2023-05-01T08:28:37.695Z,60.77
2023-05-01T08:29:37.683Z,63.32
2023-05-01T08:30:37.684Z,61.88
2023-05-01T08:31:37.811Z,63.71
2023-05-01T08:32:37.710Z,64.45
2023-05-01T08:33:37.736Z,64.25
2023-05-01T08:34:37.710Z,63.41
2023-05-01T08:35:37.721Z,63.18
2023-05-01T08:36:37.719Z,64.18
2023-05-01T08:37:37.724Z,63.01
2023-05-01T08:38:37.734Z,63.68
2023-05-01T08:39:37.735Z,63.28
2023-05-01T08:40:37.760Z,61.55
2023-05-01T08:41:37.772Z,62.02
2023-05-01T08:42:37.758Z,59.70
2023-05-01T08:43:37.758Z,61.27
2023-05-01T08:44:37.765Z,61.31
2023-05-01T08:45:37.983Z,59.72
2023-05-01T08:46:37.883Z,61.05
2023-05-01T08:47:37.873Z,61.05
2023-05-01T08:48:37.784Z,61.39
2023-05-01T08:49:37.821Z,59.88
2023-05-01T08:50:37.811Z,57.45
2023-05-01T08:51:37.801Z,59.04
2023-05-01T08:52:37.814Z,59.07
2023-05-01T08:53:37.818Z,59.17
2023-05-01T08:54:37.818Z,58.44
2023-05-01T08:55:37.841Z,59.11
2023-05-01T08:56:37.839Z,59.28
2023-05-01T08:57:37.847Z,57.79
2023-05-01T08:58:37.857Z,58.39
2023-05-01T08:59:37.859Z,56.60
2023-05-01T09:00:37.863Z,57.29
2023-05-01T09:01:38.073Z,55.32
2023-05-01T09:02:38.013Z,56.40
2023-05-01T09:03:37.946Z,56.76
2023-05-01T09:04:37.912Z,56.56
2023-05-01T09:05:37.925Z,56.29
2023-05-01T09:06:37.954Z,56.59
2023-05-01T09:07:37.930Z,57.85
2023-05-01T09:08:37.933Z,59.07
2023-05-01T09:09:37.955Z,59.53
2023-05-01T09:10:37.951Z,58.04
2023-05-01T09:11:37.970Z,56.83
2023-05-01T09:12:37.974Z,56.60
2023-05-01T09:13:37.993Z,56.57
2023-05-01T09:14:38.003Z,56.05
2023-05-01T09:15:38.013Z,55.66
2023-05-01T09:16:38.035Z,56.85
2023-05-01T09:17:38.103Z,56.40
2023-05-01T09:18:38.051Z,54.77
2023-05-01T09:19:38.060Z,55.26
2023-05-01T09:20:38.061Z,56.67
2023-05-01T09:21:38.098Z,55.08
2023-05-01T09:22:38.088Z,55.05
2023-05-01T09:23:38.101Z,53.87
2023-05-01T09:24:38.126Z,55.62
2023-05-01T09:25:38.132Z,52.14
2023-05-01T09:26:38.195Z,53.69
2023-05-01T09:27:38.163Z,53.67
2023-05-01T09:28:38.163Z,53.94
2023-05-01T09:29:38.183Z,52.46
2023-05-01T09:30:38.200Z,52.31
2023-05-01T09:31:38.261Z,52.39
2023-05-01T09:32:39.644Z,54.65
2023-05-01T09:33:38.237Z,55.51
2023-05-01T09:34:38.242Z,53.94
2023-05-01T09:35:38.261Z,53.74
2023-05-01T09:36:38.274Z,51.89
2023-05-01T09:37:38.316Z,53.25
2023-05-01T09:38:38.295Z,53.52
2023-05-01T09:39:38.319Z,55.27
2023-05-01T09:40:38.326Z,54.33
2023-05-01T09:41:38.349Z,52.48
2023-05-01T09:42:38.362Z,54.08
2023-05-01T09:43:38.381Z,52.01
2023-05-01T09:44:38.390Z,49.85
2023-05-01T09:45:38.426Z,50.93
2023-05-01T09:46:38.539Z,49.31
2023-05-01T09:47:38.502Z,48.16
2023-05-01T09:48:38.457Z,48.77
2023-05-01T09:49:38.471Z,49.73
2023-05-01T09:50:38.490Z,48.72
2023-05-01T09:51:38.507Z,48.82
2023-05-01T09:52:38.527Z,48.03
2023-05-01T09:53:38.559Z,47.37
2023-05-01T09:54:38.594Z,47.96
2023-05-01T09:55:38.580Z,48.30
2023-05-01T09:56:38.598Z,48.97
2023-05-01T09:57:38.608Z,48.16
2023-05-01T09:58:38.628Z,48.16
2023-05-01T09:59:38.643Z,47.65
2023-05-01T10:00:38.667Z,48.38
2023-05-01T10:01:38.738Z,47.43
2023-05-01T10:02:38.839Z,46.18
2023-05-01T10:03:38.993Z,47.23
2023-05-01T10:04:38.737Z,48.23
2023-05-01T10:05:38.766Z,47.27
2023-05-01T10:06:38.971Z,47.86
2023-05-01T10:07:38.805Z,48.86
2023-05-01T10:08:38.817Z,50.90
2023-05-01T10:09:38.911Z,50.04
2023-05-01T10:10:38.852Z,46.52
2023-05-01T10:11:38.875Z,46.84
2023-05-01T10:12:38.904Z,47.50
2023-05-01T10:13:38.917Z,46.84
2023-05-01T10:14:38.934Z,47.79
2023-05-01T10:15:38.965Z,48.16
2023-05-01T10:16:39.161Z,47.42
2023-05-01T10:17:39.058Z,47.99
2023-05-01T10:18:39.027Z,47.55
2023-05-01T10:19:39.034Z,47.43
2023-05-01T10:20:39.059Z,47.60
2023-05-01T10:21:39.111Z,46.36
2023-05-01T10:22:39.099Z,46.33
2023-05-01T10:23:39.120Z,46.26
2023-05-01T10:24:39.138Z,46.59
2023-05-01T10:25:39.185Z,46.11
2023-05-01T10:26:39.183Z,47.18
2023-05-01T10:27:39.208Z,46.55
2023-05-01T10:28:39.231Z,46.84
2023-05-01T10:29:39.246Z,47.14
2023-05-01T10:30:39.289Z,46.91
2023-05-01T10:31:41.483Z,47.45
2023-05-01T10:32:39.333Z,48.30
2023-05-01T10:33:39.332Z,48.25
2023-05-01T10:34:39.358Z,50.78
2023-05-01T10:35:39.375Z,48.30
2023-05-01T10:36:39.404Z,48.89
2023-05-01T10:37:39.428Z,48.57
2023-05-01T10:38:39.460Z,50.12
2023-05-01T10:39:39.467Z,48.50
2023-05-01T10:40:39.530Z,46.11
2023-05-01T10:41:39.528Z,46.97
2023-05-01T10:42:39.574Z,49.16
2023-05-01T10:43:39.568Z,46.88
2023-05-01T10:44:39.607Z,45.02
2023-05-01T10:45:39.593Z,45.23
2023-05-01T10:46:39.659Z,46.14
2023-05-01T10:47:39.655Z,45.10
2023-05-01T10:48:39.717Z,46.23
2023-05-01T10:49:39.684Z,47.01
2023-05-01T10:50:39.705Z,47.45
2023-05-01T10:51:39.733Z,47.50
2023-05-01T10:52:39.745Z,46.47
2023-05-01T10:53:39.789Z,46.93
2023-05-01T10:54:39.790Z,48.13
2023-05-01T10:55:39.830Z,48.35
2023-05-01T10:56:39.839Z,49.11
2023-05-01T10:57:39.909Z,49.41
2023-05-01T10:58:39.880Z,49.36
2023-05-01T10:59:39.919Z,48.35
2023-05-01T11:00:39.927Z,50.66
2023-05-01T11:01:40.173Z,48.35
2023-05-01T11:02:40.073Z,47.56
2023-05-01T11:03:40.000Z,48.62
2023-05-01T11:04:40.019Z,48.77
2023-05-01T11:05:40.093Z,48.52
2023-05-01T11:06:40.226Z,47.57
2023-05-01T11:07:40.094Z,46.77
2023-05-01T11:08:40.111Z,48.11
2023-05-01T11:09:40.136Z,48.02
2023-05-01T11:10:40.153Z,48.93
2023-05-01T11:11:40.186Z,46.66
2023-05-01T11:12:40.206Z,45.61
2023-05-01T11:13:40.251Z,46.46
2023-05-01T11:14:40.251Z,46.22
2023-05-01T11:15:40.269Z,46.27
2023-05-01T11:16:40.442Z,44.34
2023-05-01T11:17:40.369Z,44.68
2023-05-01T11:18:40.333Z,45.58
2023-05-01T11:19:40.363Z,45.97
2023-05-01T11:20:40.390Z,45.54
2023-05-01T11:21:40.412Z,45.47
2023-05-01T11:22:40.426Z,45.90
2023-05-01T11:23:40.456Z,46.46
2023-05-01T11:24:40.478Z,47.56
2023-05-01T11:25:40.505Z,47.88
2023-05-01T11:26:40.523Z,48.91
2023-05-01T11:27:40.546Z,50.14
2023-05-01T11:28:40.564Z,51.03
2023-05-01T11:29:40.608Z,50.66
2023-05-01T11:30:40.654Z,51.54
2023-05-01T11:31:40.679Z,53.40
2023-05-01T11:32:40.680Z,53.60
2023-05-01T11:33:40.681Z,54.99
2023-05-01T11:34:40.701Z,54.79
2023-05-01T11:35:40.720Z,55.19
2023-05-01T11:36:40.730Z,54.96
2023-05-01T11:37:40.761Z,55.16
2023-05-01T11:38:40.767Z,53.50
2023-05-01T11:39:40.799Z,55.19
2023-05-01T11:40:40.822Z,55.13
2023-05-01T11:41:40.825Z,53.40
2023-05-01T11:42:40.851Z,53.33
2023-05-01T11:43:40.866Z,51.69
2023-05-01T11:44:40.882Z,52.50
2023-05-01T11:45:41.003Z,50.29
2023-05-01T11:46:40.911Z,50.19
2023-05-01T11:47:40.989Z,50.76
2023-05-01T11:48:40.955Z,48.11
2023-05-01T11:49:40.983Z,48.86
2023-05-01T11:50:41.004Z,48.23
2023-05-01T11:51:41.012Z,49.07
2023-05-01T11:52:41.018Z,47.84
2023-05-01T11:53:41.042Z,48.38
2023-05-01T11:54:41.067Z,48.82
2023-05-01T11:55:41.098Z,49.41
2023-05-01T11:56:41.105Z,48.26
2023-05-01T11:57:41.116Z,46.94
2023-05-01T11:58:41.132Z,46.89
2023-05-01T11:59:41.152Z,47.02
2023-05-01T12:00:41.173Z,45.55
2023-05-01T12:01:41.209Z,44.70
2023-05-01T12:02:41.312Z,45.19
2023-05-01T12:03:41.366Z,45.29
2023-05-01T12:04:41.285Z,44.12
2023-05-01T12:05:41.266Z,44.09
2023-05-01T12:06:41.345Z,45.37
2023-05-01T12:07:41.307Z,46.33
2023-05-01T12:08:41.326Z,44.55
2023-05-01T12:09:41.353Z,45.14
2023-05-01T12:10:41.377Z,45.92
2023-05-01T12:11:41.394Z,45.23
2023-05-01T12:12:41.420Z,45.72
2023-05-01T12:13:41.432Z,47.08
2023-05-01T12:14:41.455Z,47.04
2023-05-01T12:15:41.481Z,46.23
2023-05-01T12:16:41.544Z,44.73
2023-05-01T12:17:41.578Z,45.80
2023-05-01T12:18:41.546Z,45.67
2023-05-01T12:19:41.560Z,45.57
2023-05-01T12:20:41.608Z,45.50
2023-05-01T12:21:41.602Z,46.34
2023-05-01T12:22:41.628Z,46.47
2023-05-01T12:23:41.652Z,44.80
2023-05-01T12:24:41.671Z,47.20
2023-05-01T12:25:41.688Z,47.65
2023-05-01T12:26:41.714Z,45.73
2023-05-01T12:27:41.736Z,46.17
2023-05-01T12:28:41.757Z,47.17
2023-05-01T12:29:41.795Z,46.49
2023-05-01T12:30:41.802Z,46.20
2023-05-01T12:31:41.854Z,47.66
2023-05-01T12:32:41.872Z,48.22
2023-05-01T12:33:41.892Z,52.21
2023-05-01T12:34:41.882Z,49.26
2023-05-01T12:35:41.914Z,50.78
2023-05-01T12:36:41.920Z,47.86
2023-05-01T12:37:41.936Z,48.35
2023-05-01T12:38:41.962Z,49.95
2023-05-01T12:39:41.974Z,49.67
2023-05-01T12:40:41.994Z,50.73
2023-05-01T12:41:42.012Z,50.12
2023-05-01T12:42:42.033Z,51.74
2023-05-01T12:43:44.257Z,50.34
2023-05-01T12:44:42.077Z,48.49
2023-05-01T12:45:42.090Z,48.39
2023-05-01T12:46:42.184Z,50.51
2023-05-01T12:47:42.175Z,47.78
2023-05-01T12:48:42.142Z,49.21
2023-05-01T12:49:42.172Z,49.90
2023-05-01T12:50:42.183Z,49.87
2023-05-01T12:51:42.191Z,47.25
2023-05-01T12:52:42.222Z,51.07